sensor_id;sensor_type;location;lat;lon;timestamp;temperature;humidity
70593;DHT22;58294;42.988;20.338;2022-09-06T00:01:13;410.30;2355.20
70593;DHT22;58294;42.988;20.338;2022-09-06T00:03:40;410.30;2355.20
70593;DHT22;58294;42.988;20.338;2022-09-06T00:06:11;410.20;2355.20
70593;DHT22;58294;42.988;20.338;2022-09-06T00:08:37;410.30;2355.20
70593;DHT22;58294;42.988;20.338;2022-09-06T00:11:03;410.30;2355.20
70593;DHT22;58294;42.988;20.338;2022-09-06T00:13:30;410.30;2355.20
70593;DHT22;58294;42.988;20.338;2022-09-06T00:15:55;410.40;2355.20
70593;DHT22;58294;42.988;20.338;2022-09-06T00:18:21;410.40;2355.20
70593;DHT22;58294;42.988;20.338;2022-09-06T00:20:47;410.40;2355.20
70593;DHT22;58294;42.988;20.338;2022-09-06T00:23:14;410.40;2355.20
70593;DHT22;58294;42.988;20.338;2022-09-06T00:25:39;410.40;2355.20
70593;DHT22;58294;42.988;20.338;2022-09-06T00:28:06;410.30;2355.20
70593;DHT22;58294;42.988;20.338;2022-09-06T00:30:33;410.30;2355.20
70593;DHT22;58294;42.988;20.338;2022-09-06T00:32:59;410.30;2355.20
70593;DHT22;58294;42.988;20.338;2022-09-06T00:35:26;410.30;2355.20
70593;DHT22;58294;42.988;20.338;2022-09-06T00:38:01;410.30;2355.20
70593;DHT22;58294;42.988;20.338;2022-09-06T00:40:28;410.20;2355.20
70593;DHT22;58294;42.988;20.338;2022-09-06T00:42:56;410.20;2355.20
70593;DHT22;58294;42.988;20.338;2022-09-06T00:45:23;410.20;2355.20
70593;DHT22;58294;42.988;20.338;2022-09-06T00:47:50;410.20;2355.20
70593;DHT22;58294;42.988;20.338;2022-09-06T00:50:17;410.20;2355.20
70593;DHT22;58294;42.988;20.338;2022-09-06T00:52:45;410.20;2355.20
70593;DHT22;58294;42.988;20.338;2022-09-06T00:55:12;410.20;2355.20
70593;DHT22;58294;42.988;20.338;2022-09-06T00:57:38;410.30;2355.20
70593;DHT22;58294;42.988;20.338;2022-09-06T01:00:06;410.30;2355.20
70593;DHT22;58294;42.988;20.338;2022-09-06T01:02:33;410.30;2355.20
70593;DHT22;58294;42.988;20.338;2022-09-06T01:04:59;410.30;2355.20
70593;DHT22;58294;42.988;20.338;2022-09-06T01:10:36;410.30;2355.20
70593;DHT22;58294;42.988;20.338;2022-09-06T01:13:11;410.20;2355.20
70593;DHT22;58294;42.988;20.338;2022-09-06T01:18:28;410.10;2355.20
70593;DHT22;58294;42.988;20.338;2022-09-06T01:28:52;410.10;2355.20
70593;DHT22;58294;42.988;20.338;2022-09-06T01:33:58;410.10;2355.20
70593;DHT22;58294;42.988;20.338;2022-09-06T01:36:26;410.20;2355.20
70593;DHT22;58294;42.988;20.338;2022-09-06T01:38:57;410.20;2355.20
70593;DHT22;58294;42.988;20.338;2022-09-06T01:41:23;410.20;2355.20
70593;DHT22;58294;42.988;20.338;2022-09-06T01:43:50;410.20;2355.20
70593;DHT22;58294;42.988;20.338;2022-09-06T01:46:39;410.20;2355.20
70593;DHT22;58294;42.988;20.338;2022-09-06T01:49:53;410.20;2355.20
70593;DHT22;58294;42.988;20.338;2022-09-06T01:52:56;410.20;2355.20
70593;DHT22;58294;42.988;20.338;2022-09-06T01:55:31;410.20;2355.20
70593;DHT22;58294;42.988;20.338;2022-09-06T02:04:17;410.30;2355.20
70593;DHT22;58294;42.988;20.338;2022-09-06T02:06:52;410.30;2355.20
70593;DHT22;58294;42.988;20.338;2022-09-06T02:09:22;410.30;2355.20
70593;DHT22;58294;42.988;20.338;2022-09-06T02:11:59;410.40;2355.20
70593;DHT22;58294;42.988;20.338;2022-09-06T02:14:34;410.40;2355.20
70593;DHT22;58294;42.988;20.338;2022-09-06T02:17:02;410.40;2355.20
70593;DHT22;58294;42.988;20.338;2022-09-06T02:19:54;410.40;2355.20
70593;DHT22;58294;42.988;20.338;2022-09-06T02:22:26;410.40;2355.20
70593;DHT22;58294;42.988;20.338;2022-09-06T02:24:55;410.40;2355.20
70593;DHT22;58294;42.988;20.338;2022-09-06T02:27:23;410.30;2355.20
70593;DHT22;58294;42.988;20.338;2022-09-06T02:29:49;410.40;2355.20
70593;DHT22;58294;42.988;20.338;2022-09-06T02:32:22;410.30;2355.20
70593;DHT22;58294;42.988;20.338;2022-09-06T02:34:51;410.40;2355.20
70593;DHT22;58294;42.988;20.338;2022-09-06T02:37:17;410.40;2355.20
70593;DHT22;58294;42.988;20.338;2022-09-06T02:39:43;410.40;2355.20
70593;DHT22;58294;42.988;20.338;2022-09-06T02:42:11;410.40;2355.20
70593;DHT22;58294;42.988;20.338;2022-09-06T02:44:37;410.40;2355.20
70593;DHT22;58294;42.988;20.338;2022-09-06T02:47:04;410.40;2355.20
70593;DHT22;58294;42.988;20.338;2022-09-06T02:49:30;410.40;2355.20
70593;DHT22;58294;42.988;20.338;2022-09-06T02:51:56;410.40;2355.20
70593;DHT22;58294;42.988;20.338;2022-09-06T02:54:23;410.40;2355.20
70593;DHT22;58294;42.988;20.338;2022-09-06T02:56:49;410.40;2355.20
70593;DHT22;58294;42.988;20.338;2022-09-06T02:59:15;410.40;2355.20
70593;DHT22;58294;42.988;20.338;2022-09-06T03:01:41;410.40;2355.20
70593;DHT22;58294;42.988;20.338;2022-09-06T03:04:07;410.40;2355.20
70593;DHT22;58294;42.988;20.338;2022-09-06T03:06:33;410.40;2355.20
70593;DHT22;58294;42.988;20.338;2022-09-06T03:08:59;410.40;2355.20
70593;DHT22;58294;42.988;20.338;2022-09-06T03:11:26;410.40;2355.20
70593;DHT22;58294;42.988;20.338;2022-09-06T03:13:52;410.40;2355.20
70593;DHT22;58294;42.988;20.338;2022-09-06T03:16:18;410.40;2355.20
70593;DHT22;58294;42.988;20.338;2022-09-06T03:18:44;410.30;2355.20
70593;DHT22;58294;42.988;20.338;2022-09-06T03:21:11;410.30;2355.20
70593;DHT22;58294;42.988;20.338;2022-09-06T03:23:37;410.20;2355.20
70593;DHT22;58294;42.988;20.338;2022-09-06T03:26:07;410.20;2355.20
70593;DHT22;58294;42.988;20.338;2022-09-06T03:28:33;410.20;2355.20
70593;DHT22;58294;42.988;20.338;2022-09-06T03:30:59;410.20;2355.20
70593;DHT22;58294;42.988;20.338;2022-09-06T03:33:25;410.10;2355.20
70593;DHT22;58294;42.988;20.338;2022-09-06T03:35:56;410.20;2355.20
70593;DHT22;58294;42.988;20.338;2022-09-06T03:38:23;410.10;2355.20
70593;DHT22;58294;42.988;20.338;2022-09-06T03:40:49;410.10;2355.20
70593;DHT22;58294;42.988;20.338;2022-09-06T03:43:17;410.10;2355.20
70593;DHT22;58294;42.988;20.338;2022-09-06T03:45:48;410.20;2355.20
70593;DHT22;58294;42.988;20.338;2022-09-06T03:48:15;410.20;2355.20
70593;DHT22;58294;42.988;20.338;2022-09-06T03:50:49;410.20;2355.20
70593;DHT22;58294;42.988;20.338;2022-09-06T03:53:16;410.20;2355.20
70593;DHT22;58294;42.988;20.338;2022-09-06T03:55:50;410.30;2355.20
70593;DHT22;58294;42.988;20.338;2022-09-06T03:58:18;410.30;2355.20
70593;DHT22;58294;42.988;20.338;2022-09-06T04:00:44;410.20;2355.20
70593;DHT22;58294;42.988;20.338;2022-09-06T04:03:10;410.30;2355.20
70593;DHT22;58294;42.988;20.338;2022-09-06T04:05:36;410.20;2355.20
70593;DHT22;58294;42.988;20.338;2022-09-06T04:08:03;410.30;2355.20
70593;DHT22;58294;42.988;20.338;2022-09-06T04:10:30;410.30;2355.20
70593;DHT22;58294;42.988;20.338;2022-09-06T04:12:56;410.30;2355.20
70593;DHT22;58294;42.988;20.338;2022-09-06T04:15:22;410.30;2355.20
70593;DHT22;58294;42.988;20.338;2022-09-06T04:17:48;410.30;2355.20
70593;DHT22;58294;42.988;20.338;2022-09-06T04:20:14;410.30;2355.20
70593;DHT22;58294;42.988;20.338;2022-09-06T04:22:40;410.30;2355.20
70593;DHT22;58294;42.988;20.338;2022-09-06T04:25:07;410.30;2355.20
70593;DHT22;58294;42.988;20.338;2022-09-06T04:27:33;410.30;2355.20
70593;DHT22;58294;42.988;20.338;2022-09-06T04:29:59;410.30;2355.20
70593;DHT22;58294;42.988;20.338;2022-09-06T04:32:25;410.20;2355.20
70593;DHT22;58294;42.988;20.338;2022-09-06T04:34:50;410.20;2355.20
70593;DHT22;58294;42.988;20.338;2022-09-06T04:37:16;410.20;2355.20
70593;DHT22;58294;42.988;20.338;2022-09-06T04:39:47;410.20;2355.20
70593;DHT22;58294;42.988;20.338;2022-09-06T04:42:14;410.20;2355.20
70593;DHT22;58294;42.988;20.338;2022-09-06T04:44:40;410.10;2355.20
70593;DHT22;58294;42.988;20.338;2022-09-06T04:47:12;410.10;2355.20
70593;DHT22;58294;42.988;20.338;2022-09-06T04:49:40;410.10;2355.20
70593;DHT22;58294;42.988;20.338;2022-09-06T04:52:44;410.10;2355.20
70593;DHT22;58294;42.988;20.338;2022-09-06T04:55:35;410.10;2355.20
70593;DHT22;58294;42.988;20.338;2022-09-06T05:32:45;410.00;2355.20
70593;DHT22;58294;42.988;20.338;2022-09-06T05:52:24;410.20;2355.20
70593;DHT22;58294;42.988;20.338;2022-09-06T07:19:46;486.60;2380.80
70593;DHT22;58294;42.988;20.338;2022-09-06T07:22:12;486.80;2380.80
70593;DHT22;58294;42.988;20.338;2022-09-06T07:27:04;487.00;2380.80
70593;DHT22;58294;42.988;20.338;2022-09-06T07:29:30;487.10;2380.80
70593;DHT22;58294;42.988;20.338;2022-09-06T07:31:56;487.10;2380.80
70593;DHT22;58294;42.988;20.338;2022-09-06T07:34:23;487.10;2380.80
70593;DHT22;58294;42.988;20.338;2022-09-06T07:36:54;487.10;2380.80
70593;DHT22;58294;42.988;20.338;2022-09-06T07:39:21;487.20;2380.80
70593;DHT22;58294;42.988;20.338;2022-09-06T07:41:47;487.30;2380.80
70593;DHT22;58294;42.988;20.338;2022-09-06T07:44:13;487.30;2380.80
70593;DHT22;58294;42.988;20.338;2022-09-06T07:46:39;487.30;2380.80
70593;DHT22;58294;42.988;20.338;2022-09-06T07:49:06;512.20;2380.80
70593;DHT22;58294;42.988;20.338;2022-09-06T07:53:58;512.40;2380.80
70593;DHT22;58294;42.988;20.338;2022-09-06T07:56:24;512.30;2380.80
70593;DHT22;58294;42.988;20.338;2022-09-06T07:58:51;512.30;2380.80
70593;DHT22;58294;42.988;20.338;2022-09-06T08:01:27;512.40;2380.80
70593;DHT22;58294;42.988;20.338;2022-09-06T08:03:56;512.60;2380.80
70593;DHT22;58294;42.988;20.338;2022-09-06T08:06:24;512.70;2380.80
70593;DHT22;58294;42.988;20.338;2022-09-06T08:08:50;537.60;2406.40
70593;DHT22;58294;42.988;20.338;2022-09-06T08:11:16;537.70;2406.40
70593;DHT22;58294;42.988;20.338;2022-09-06T08:13:42;537.80;2406.40
70593;DHT22;58294;42.988;20.338;2022-09-06T08:16:09;537.90;2406.40
70593;DHT22;58294;42.988;20.338;2022-09-06T08:18:38;538.00;2406.40
70593;DHT22;58294;42.988;20.338;2022-09-06T08:21:07;538.10;2406.40
70593;DHT22;58294;42.988;20.338;2022-09-06T08:23:33;538.20;2406.40
70593;DHT22;58294;42.988;20.338;2022-09-06T08:26:00;538.40;2406.40
70593;DHT22;58294;42.988;20.338;2022-09-06T08:28:26;563.20;2432.00
70593;DHT22;58294;42.988;20.338;2022-09-06T08:30:52;563.30;2432.00
70593;DHT22;58294;42.988;20.338;2022-09-06T08:33:18;563.50;2432.00
70593;DHT22;58294;42.988;20.338;2022-09-06T08:35:58;563.60;2432.00
70593;DHT22;58294;42.988;20.338;2022-09-06T08:38:27;563.80;2432.00
70593;DHT22;58294;42.988;20.338;2022-09-06T08:40:54;563.90;2432.00
70593;DHT22;58294;42.988;20.338;2022-09-06T08:43:31;564.00;2432.00
70593;DHT22;58294;42.988;20.338;2022-09-06T08:46:00;588.80;2432.00
70593;DHT22;58294;42.988;20.338;2022-09-06T08:48:31;588.80;2432.00
70593;DHT22;58294;42.988;20.338;2022-09-06T08:53:47;589.10;2432.00
70593;DHT22;58294;42.988;20.338;2022-09-06T08:56:21;589.10;2432.00
70593;DHT22;58294;42.988;20.338;2022-09-06T08:59:04;589.30;2432.00
70593;DHT22;58294;42.988;20.338;2022-09-06T09:01:36;589.40;2432.00
70593;DHT22;58294;42.988;20.338;2022-09-06T09:04:12;589.40;2432.00
70593;DHT22;58294;42.988;20.338;2022-09-06T09:06:39;589.40;2432.00
70593;DHT22;58294;42.988;20.338;2022-09-06T09:09:07;589.40;2432.00
70593;DHT22;58294;42.988;20.338;2022-09-06T09:11:33;589.40;2432.00
70593;DHT22;58294;42.988;20.338;2022-09-06T09:14:29;589.50;2432.00
70593;DHT22;58294;42.988;20.338;2022-09-06T09:17:37;589.60;2432.00
70593;DHT22;58294;42.988;20.338;2022-09-06T09:19:56;589.70;2432.00
70593;DHT22;58294;42.988;20.338;2022-09-06T09:22:23;589.70;2432.00
70593;DHT22;58294;42.988;20.338;2022-09-06T09:24:50;614.40;2432.00
70593;DHT22;58294;42.988;20.338;2022-09-06T09:27:25;614.40;2432.00
70593;DHT22;58294;42.988;20.338;2022-09-06T09:32:34;614.40;2432.00
70593;DHT22;58294;42.988;20.338;2022-09-06T09:42:50;589.70;2432.00
70593;DHT22;58294;42.988;20.338;2022-09-06T09:45:27;589.70;2432.00
70593;DHT22;58294;42.988;20.338;2022-09-06T09:47:54;589.70;2432.00
70593;DHT22;58294;42.988;20.338;2022-09-06T09:50:33;614.40;2432.00
70593;DHT22;58294;42.988;20.338;2022-09-06T09:53:10;614.40;2432.00
70593;DHT22;58294;42.988;20.338;2022-09-06T09:55:36;614.50;2432.00
70593;DHT22;58294;42.988;20.338;2022-09-06T09:58:04;614.50;2432.00
70593;DHT22;58294;42.988;20.338;2022-09-06T10:00:37;614.80;2432.00
70593;DHT22;58294;42.988;20.338;2022-09-06T10:03:12;615.10;2432.00
70593;DHT22;58294;42.988;20.338;2022-09-06T10:05:40;615.00;2432.00
70593;DHT22;58294;42.988;20.338;2022-09-06T10:08:10;615.00;2432.00
70593;DHT22;58294;42.988;20.338;2022-09-06T10:10:46;615.00;2432.00
70593;DHT22;58294;42.988;20.338;2022-09-06T10:15:48;615.00;2432.00
70593;DHT22;58294;42.988;20.338;2022-09-06T10:18:31;614.90;2432.00
70593;DHT22;58294;42.988;20.338;2022-09-06T10:21:02;640.00;2432.00
70593;DHT22;58294;42.988;20.338;2022-09-06T10:26:41;666.30;2432.00
70593;DHT22;58294;42.988;20.338;2022-09-06T10:29:09;691.40;2432.00
70593;DHT22;58294;42.988;20.338;2022-09-06T10:42:21;742.90;2432.00
70593;DHT22;58294;42.988;20.338;2022-09-06T10:47:31;742.90;2432.00
70593;DHT22;58294;42.988;20.338;2022-09-06T10:52:32;743.20;2432.00
70593;DHT22;58294;42.988;20.338;2022-09-06T10:55:00;768.00;2432.00
70593;DHT22;58294;42.988;20.338;2022-09-06T10:57:40;743.20;2432.00
70593;DHT22;58294;42.988;20.338;2022-09-06T11:00:08;768.00;2432.00
70593;DHT22;58294;42.988;20.338;2022-09-06T11:05:32;743.00;1996.80
70593;DHT22;58294;42.988;20.338;2022-09-06T11:08:11;742.80;2432.00
70593;DHT22;58294;42.988;20.338;2022-09-06T11:10:40;742.60;2432.00
70593;DHT22;58294;42.988;20.338;2022-09-06T11:13:10;742.70;2432.00
70593;DHT22;58294;42.988;20.338;2022-09-06T11:15:46;742.90;2432.00
70593;DHT22;58294;42.988;20.338;2022-09-06T11:20:49;743.10;2432.00
70593;DHT22;58294;42.988;20.338;2022-09-06T11:23:52;743.00;2432.00
70593;DHT22;58294;42.988;20.338;2022-09-06T11:28:58;768.20;2432.00
70593;DHT22;58294;42.988;20.338;2022-09-06T11:31:32;768.30;2432.00
70593;DHT22;58294;42.988;20.338;2022-09-06T11:34:07;768.40;2432.00
70593;DHT22;58294;42.988;20.338;2022-09-06T11:36:46;768.70;2432.00
70593;DHT22;58294;42.988;20.338;2022-09-06T11:39:13;768.80;2432.00
70593;DHT22;58294;42.988;20.338;2022-09-06T11:41:48;793.60;1996.80
70593;DHT22;58294;42.988;20.338;2022-09-06T11:51:54;793.60;1971.20
70593;DHT22;58294;42.988;20.338;2022-09-06T11:54:24;768.70;1715.20
70593;DHT22;58294;42.988;20.338;2022-09-06T11:56:58;768.20;1664.00
70593;DHT22;58294;42.988;20.338;2022-09-06T11:59:38;768.30;2432.00
70593;DHT22;58294;42.988;20.338;2022-09-06T12:02:30;768.50;2432.00
70593;DHT22;58294;42.988;20.338;2022-09-06T12:09:53;794.40;2432.00
70593;DHT22;58294;42.988;20.338;2022-09-06T12:12:43;819.20;2432.00
70593;DHT22;58294;42.988;20.338;2022-09-06T12:17:49;819.90;2432.00
70593;DHT22;58294;42.988;20.338;2022-09-06T12:29:02;844.90;2432.00
70593;DHT22;58294;42.988;20.338;2022-09-06T12:31:39;845.20;2432.00
70593;DHT22;58294;42.988;20.338;2022-09-06T12:34:30;845.20;2432.00
70593;DHT22;58294;42.988;20.338;2022-09-06T12:37:04;845.10;2432.00
70593;DHT22;58294;42.988;20.338;2022-09-06T12:39:32;820.10;2355.20
70593;DHT22;58294;42.988;20.338;2022-09-06T12:42:10;819.80;1638.40
70593;DHT22;58294;42.988;20.338;2022-09-06T12:44:41;819.60;2432.00
70593;DHT22;58294;42.988;20.338;2022-09-06T12:47:16;794.50;1817.60
70593;DHT22;58294;42.988;20.338;2022-09-06T12:49:43;793.80;1843.20
70593;DHT22;58294;42.988;20.338;2022-09-06T12:52:15;768.60;1305.60
70593;DHT22;58294;42.988;20.338;2022-09-06T12:54:46;768.00;1792.00
70593;DHT22;58294;42.988;20.338;2022-09-06T12:57:23;743.10;1561.60
70593;DHT22;58294;42.988;20.338;2022-09-06T12:59:56;742.80;2252.80
70593;DHT22;58294;42.988;20.338;2022-09-06T13:02:36;742.60;2124.80
70593;DHT22;58294;42.988;20.338;2022-09-06T13:05:07;717.60;1587.20
70593;DHT22;58294;42.988;20.338;2022-09-06T13:07:43;717.50;2380.80
70593;DHT22;58294;42.988;20.338;2022-09-06T13:10:12;717.30;1664.00
70593;DHT22;58294;42.988;20.338;2022-09-06T13:12:43;717.20;2150.40
70593;DHT22;58294;42.988;20.338;2022-09-06T13:17:38;692.10;2201.60
70593;DHT22;58294;42.988;20.338;2022-09-06T13:20:13;691.90;1331.20
70593;DHT22;58294;42.988;20.338;2022-09-06T13:22:45;691.80;1843.20
70593;DHT22;58294;42.988;20.338;2022-09-06T13:27:48;691.70;2227.20
70593;DHT22;58294;42.988;20.338;2022-09-06T13:30:58;691.50;1510.40
70593;DHT22;58294;42.988;20.338;2022-09-06T13:33:26;691.40;2150.40
70593;DHT22;58294;42.988;20.338;2022-09-06T13:36:05;691.30;1484.80
70593;DHT22;58294;42.988;20.338;2022-09-06T13:38:38;691.30;2201.60
70593;DHT22;58294;42.988;20.338;2022-09-06T13:41:30;691.30;2048.00
70593;DHT22;58294;42.988;20.338;2022-09-06T13:44:15;691.30;1459.20
70593;DHT22;58294;42.988;20.338;2022-09-06T13:46:41;691.30;2124.80
70593;DHT22;58294;42.988;20.338;2022-09-06T13:49:07;691.20;1433.60
70593;DHT22;58294;42.988;20.338;2022-09-06T13:51:33;691.20;1331.20
70593;DHT22;58294;42.988;20.338;2022-09-06T13:56:30;666.40;1536.00
70593;DHT22;58294;42.988;20.338;2022-09-06T14:01:22;666.40;1638.40
70593;DHT22;58294;42.988;20.338;2022-09-06T14:03:48;666.20;1305.60
70593;DHT22;58294;42.988;20.338;2022-09-06T14:06:15;666.10;1382.40
70593;DHT22;58294;42.988;20.338;2022-09-06T14:08:41;666.10;1382.40
70593;DHT22;58294;42.988;20.338;2022-09-06T14:11:07;666.10;1536.00
70593;DHT22;58294;42.988;20.338;2022-09-06T14:13:33;666.10;1331.20
70593;DHT22;58294;42.988;20.338;2022-09-06T14:15:59;666.20;1382.40
70593;DHT22;58294;42.988;20.338;2022-09-06T14:18:25;666.20;1408.00
70593;DHT22;58294;42.988;20.338;2022-09-06T14:20:54;666.20;1459.20
70593;DHT22;58294;42.988;20.338;2022-09-06T14:23:22;666.30;1587.20
70593;DHT22;58294;42.988;20.338;2022-09-06T14:25:53;666.10;1280.00
70593;DHT22;58294;42.988;20.338;2022-09-06T14:28:19;666.10;1356.80
70593;DHT22;58294;42.988;20.338;2022-09-06T14:30:45;666.00;1382.40
70593;DHT22;58294;42.988;20.338;2022-09-06T14:33:11;666.00;1305.60
70593;DHT22;58294;42.988;20.338;2022-09-06T14:35:40;665.90;1280.00
70593;DHT22;58294;42.988;20.338;2022-09-06T14:38:06;665.80;1433.60
70593;DHT22;58294;42.988;20.338;2022-09-06T14:40:36;665.80;1433.60
70593;DHT22;58294;42.988;20.338;2022-09-06T14:43:03;665.80;1536.00
70593;DHT22;58294;42.988;20.338;2022-09-06T14:45:28;665.70;1356.80
70593;DHT22;58294;42.988;20.338;2022-09-06T14:47:54;665.60;1305.60
70593;DHT22;58294;42.988;20.338;2022-09-06T14:50:20;665.60;1305.60
70593;DHT22;58294;42.988;20.338;2022-09-06T14:52:47;640.90;1305.60
70593;DHT22;58294;42.988;20.338;2022-09-06T14:55:13;640.80;1305.60
70593;DHT22;58294;42.988;20.338;2022-09-06T14:57:39;640.80;1305.60
70593;DHT22;58294;42.988;20.338;2022-09-06T15:00:05;640.70;1305.60
70593;DHT22;58294;42.988;20.338;2022-09-06T15:02:35;640.60;1382.40
70593;DHT22;58294;42.988;20.338;2022-09-06T15:05:03;640.60;1433.60
70593;DHT22;58294;42.988;20.338;2022-09-06T15:07:29;640.60;1356.80
70593;DHT22;58294;42.988;20.338;2022-09-06T15:09:57;640.50;1433.60
70593;DHT22;58294;42.988;20.338;2022-09-06T15:12:23;640.50;1459.20
70593;DHT22;58294;42.988;20.338;2022-09-06T15:14:49;640.40;1408.00
70593;DHT22;58294;42.988;20.338;2022-09-06T15:17:15;640.50;1433.60
70593;DHT22;58294;42.988;20.338;2022-09-06T15:19:41;640.40;1408.00
70593;DHT22;58294;42.988;20.338;2022-09-06T15:22:07;640.30;1408.00
70593;DHT22;58294;42.988;20.338;2022-09-06T15:24:33;640.30;1459.20
70593;DHT22;58294;42.988;20.338;2022-09-06T15:26:59;640.30;1484.80
70593;DHT22;58294;42.988;20.338;2022-09-06T15:29:25;640.40;1382.40
70593;DHT22;58294;42.988;20.338;2022-09-06T15:31:54;640.30;1433.60
70593;DHT22;58294;42.988;20.338;2022-09-06T15:34:22;640.30;1356.80
70593;DHT22;58294;42.988;20.338;2022-09-06T15:36:49;640.30;1433.60
70593;DHT22;58294;42.988;20.338;2022-09-06T15:39:15;640.20;1408.00
70593;DHT22;58294;42.988;20.338;2022-09-06T15:41:41;640.20;1356.80
70593;DHT22;58294;42.988;20.338;2022-09-06T15:44:12;640.20;1408.00
70593;DHT22;58294;42.988;20.338;2022-09-06T15:46:50;640.20;1459.20
70593;DHT22;58294;42.988;20.338;2022-09-06T15:49:19;640.20;1612.80
70593;DHT22;58294;42.988;20.338;2022-09-06T15:51:46;640.20;1536.00
70593;DHT22;58294;42.988;20.338;2022-09-06T15:54:15;640.20;1510.40
70593;DHT22;58294;42.988;20.338;2022-09-06T15:56:42;640.20;1459.20
70593;DHT22;58294;42.988;20.338;2022-09-06T15:59:08;640.20;1408.00
70593;DHT22;58294;42.988;20.338;2022-09-06T16:01:34;640.20;1561.60
70593;DHT22;58294;42.988;20.338;2022-09-06T16:04:02;640.20;1510.40
70593;DHT22;58294;42.988;20.338;2022-09-06T16:06:30;640.20;1484.80
70593;DHT22;58294;42.988;20.338;2022-09-06T16:09:09;640.20;1484.80
70593;DHT22;58294;42.988;20.338;2022-09-06T16:11:36;640.20;1638.40
70593;DHT22;58294;42.988;20.338;2022-09-06T16:14:08;640.20;1536.00
70593;DHT22;58294;42.988;20.338;2022-09-06T16:16:34;640.20;1587.20
70593;DHT22;58294;42.988;20.338;2022-09-06T16:19:00;640.10;1510.40
70593;DHT22;58294;42.988;20.338;2022-09-06T16:21:29;640.00;1484.80
70593;DHT22;58294;42.988;20.338;2022-09-06T16:24:01;640.00;1510.40
70593;DHT22;58294;42.988;20.338;2022-09-06T16:26:29;615.30;1587.20
70593;DHT22;58294;42.988;20.338;2022-09-06T16:28:59;615.20;1536.00
70593;DHT22;58294;42.988;20.338;2022-09-06T16:31:26;615.20;1510.40
70593;DHT22;58294;42.988;20.338;2022-09-06T16:33:52;615.00;1510.40
70593;DHT22;58294;42.988;20.338;2022-09-06T16:36:20;615.00;1510.40
70593;DHT22;58294;42.988;20.338;2022-09-06T16:38:47;614.90;1561.60
70593;DHT22;58294;42.988;20.338;2022-09-06T16:41:18;614.90;1561.60
70593;DHT22;58294;42.988;20.338;2022-09-06T16:43:45;614.70;1612.80
70593;DHT22;58294;42.988;20.338;2022-09-06T16:46:14;614.60;1612.80
70593;DHT22;58294;42.988;20.338;2022-09-06T16:48:40;614.50;1689.60
70593;DHT22;58294;42.988;20.338;2022-09-06T16:51:15;614.40;1868.80
70593;DHT22;58294;42.988;20.338;2022-09-06T16:53:43;589.70;1740.80
70593;DHT22;58294;42.988;20.338;2022-09-06T16:56:11;589.50;1715.20
70593;DHT22;58294;42.988;20.338;2022-09-06T16:58:37;589.30;1715.20
70593;DHT22;58294;42.988;20.338;2022-09-06T17:01:07;589.10;1740.80
70593;DHT22;58294;42.988;20.338;2022-09-06T17:03:37;589.00;1766.40
70593;DHT22;58294;42.988;20.338;2022-09-06T17:06:04;588.80;1766.40
70593;DHT22;58294;42.988;20.338;2022-09-06T17:08:31;588.80;1817.60
70593;DHT22;58294;42.988;20.338;2022-09-06T17:11:11;564.00;1843.20
70593;DHT22;58294;42.988;20.338;2022-09-06T17:13:39;564.00;1868.80
70593;DHT22;58294;42.988;20.338;2022-09-06T17:16:05;563.80;1868.80
70593;DHT22;58294;42.988;20.338;2022-09-06T17:18:51;563.70;1868.80
70593;DHT22;58294;42.988;20.338;2022-09-06T17:21:21;563.70;1894.40
70593;DHT22;58294;42.988;20.338;2022-09-06T17:23:48;563.60;1971.20
70593;DHT22;58294;42.988;20.338;2022-09-06T17:26:15;563.50;1971.20
70593;DHT22;58294;42.988;20.338;2022-09-06T17:28:41;563.40;1996.80
70593;DHT22;58294;42.988;20.338;2022-09-06T17:31:08;563.40;2022.40
70593;DHT22;58294;42.988;20.338;2022-09-06T17:33:35;563.20;2022.40
70593;DHT22;58294;42.988;20.338;2022-09-06T17:36:12;563.20;1996.80
70593;DHT22;58294;42.988;20.338;2022-09-06T17:38:39;538.50;2048.00
70593;DHT22;58294;42.988;20.338;2022-09-06T17:41:06;538.40;2022.40
70593;DHT22;58294;42.988;20.338;2022-09-06T17:43:34;538.40;2022.40
70593;DHT22;58294;42.988;20.338;2022-09-06T17:46:02;538.30;2099.20
70593;DHT22;58294;42.988;20.338;2022-09-06T17:48:28;538.20;2048.00
70593;DHT22;58294;42.988;20.338;2022-09-06T17:50:54;538.10;2048.00
70593;DHT22;58294;42.988;20.338;2022-09-06T17:53:22;538.10;2022.40
70593;DHT22;58294;42.988;20.338;2022-09-06T17:55:48;538.00;1996.80
70593;DHT22;58294;42.988;20.338;2022-09-06T18:00:43;537.90;2201.60
70593;DHT22;58294;42.988;20.338;2022-09-06T18:03:09;537.70;2099.20
70593;DHT22;58294;42.988;20.338;2022-09-06T18:17:51;512.70;2073.60
70593;DHT22;58294;42.988;20.338;2022-09-06T18:20:17;512.40;2099.20
70593;DHT22;58294;42.988;20.338;2022-09-06T18:27:35;512.30;2201.60
70593;DHT22;58294;42.988;20.338;2022-09-06T18:30:01;512.00;2201.60
70593;DHT22;58294;42.988;20.338;2022-09-06T18:32:27;487.20;2227.20
70593;DHT22;58294;42.988;20.338;2022-09-06T18:34:52;487.20;2201.60
70593;DHT22;58294;42.988;20.338;2022-09-06T18:37:18;487.00;2227.20
70593;DHT22;58294;42.988;20.338;2022-09-06T18:39:44;486.90;2278.40
70593;DHT22;58294;42.988;20.338;2022-09-06T18:42:10;486.90;2252.80
70593;DHT22;58294;42.988;20.338;2022-09-06T18:44:36;486.90;2227.20
70593;DHT22;58294;42.988;20.338;2022-09-06T18:47:05;486.80;2252.80
70593;DHT22;58294;42.988;20.338;2022-09-06T18:49:31;486.70;2304.00
70593;DHT22;58294;42.988;20.338;2022-09-06T18:51:59;486.60;2304.00
70593;DHT22;58294;42.988;20.338;2022-09-06T18:54:26;486.60;2304.00
70593;DHT22;58294;42.988;20.338;2022-09-06T18:56:52;486.60;2304.00
70593;DHT22;58294;42.988;20.338;2022-09-06T18:59:18;486.50;2329.60
70593;DHT22;58294;42.988;20.338;2022-09-06T19:01:44;486.50;2329.60
70593;DHT22;58294;42.988;20.338;2022-09-06T19:04:11;486.50;2329.60
70593;DHT22;58294;42.988;20.338;2022-09-06T19:06:38;486.50;2278.40
70593;DHT22;58294;42.988;20.338;2022-09-06T19:09:08;486.40;2329.60
70593;DHT22;58294;42.988;20.338;2022-09-06T19:11:34;461.60;2329.60